Van Buren, Washington
Current Conditions -  °F | °C
As of 6:00 PM on Monday 22 Dec 2014 (Local Time) from CYXX Reporting Station
Overcast Overcast  
Wind Chill: 41°   Ceiling: 15000
Heat Index: 41°   Visibility: 10mi
Dew Point: 39°   Wind: 3mph
Humidity: 93%   Direction: 20°NNE
Pressure: 30.39"   Gusts: NA
Location:  48.9068°N, 122.295°W
Report Text: CYXX 230200Z 02003KT 10SM FEW065 OVC150 05/04 A3039 RMK SC1AS8 SC TR SLP292
Loading
Personal Weather Stations






























Interactive Weather Map New forecast layout! Learn more

10-Day Weather Forecast

Advertisements
Track Severe Weather on mobile